sensor_id;sensor_type;location;lat;lon;timestamp;pressure;altitude;pressure_sealevel;temperature;humidity
11542;BME280;5827;49.482;7.716;2023-03-26T00:01:21;98260.41;;;8.03;100.00
11542;BME280;5827;49.482;7.716;2023-03-26T00:03:23;98255.16;;;8.08;100.00
11542;BME280;5827;49.482;7.716;2023-03-26T00:05:25;98260.50;;;8.08;100.00
11542;BME280;5827;49.482;7.716;2023-03-26T00:07:26;98265.31;;;7.95;100.00
11542;BME280;5827;49.482;7.716;2023-03-26T00:09:28;98259.75;;;7.96;100.00
11542;BME280;5827;49.482;7.716;2023-03-26T00:11:31;98256.75;;;7.93;100.00
11542;BME280;5827;49.482;7.716;2023-03-26T00:13:34;98264.75;;;7.93;100.00
11542;BME280;5827;49.482;7.716;2023-03-26T00:15:36;98259.56;;;7.86;100.00
11542;BME280;5827;49.482;7.716;2023-03-26T00:17:37;98247.66;;;7.77;100.00
11542;BME280;5827;49.482;7.716;2023-03-26T00:19:39;98249.34;;;7.83;100.00
11542;BME280;5827;49.482;7.716;2023-03-26T00:21:40;98259.81;;;8.01;100.00
11542;BME280;5827;49.482;7.716;2023-03-26T00:23:42;98256.94;;;8.03;100.00
11542;BME280;5827;49.482;7.716;2023-03-26T00:25:44;98254.19;;;7.98;100.00
11542;BME280;5827;49.482;7.716;2023-03-26T00:27:51;98241.94;;;7.85;100.00
11542;BME280;5827;49.482;7.716;2023-03-26T00:29:53;98248.13;;;8.02;100.00
11542;BME280;5827;49.482;7.716;2023-03-26T00:31:55;98239.69;;;7.94;100.00
11542;BME280;5827;49.482;7.716;2023-03-26T00:33:57;98242.13;;;7.95;100.00
11542;BME280;5827;49.482;7.716;2023-03-26T00:36:03;98237.59;;;7.96;100.00
11542;BME280;5827;49.482;7.716;2023-03-26T00:38:05;98235.34;;;8.04;100.00
11542;BME280;5827;49.482;7.716;2023-03-26T00:40:08;98236.06;;;8.00;100.00
11542;BME280;5827;49.482;7.716;2023-03-26T00:42:10;98228.22;;;7.93;100.00
11542;BME280;5827;49.482;7.716;2023-03-26T00:44:15;98221.41;;;7.85;100.00
11542;BME280;5827;49.482;7.716;2023-03-26T00:46:17;98220.94;;;7.88;100.00
11542;BME280;5827;49.482;7.716;2023-03-26T00:48:19;98220.41;;;7.75;100.00
11542;BME280;5827;49.482;7.716;2023-03-26T00:50:22;98209.63;;;7.70;100.00
11542;BME280;5827;49.482;7.716;2023-03-26T00:52:23;98215.91;;;7.75;100.00
11542;BME280;5827;49.482;7.716;2023-03-26T00:54:27;98212.78;;;7.67;100.00
11542;BME280;5827;49.482;7.716;2023-03-26T00:56:29;98208.59;;;7.71;100.00
11542;BME280;5827;49.482;7.716;2023-03-26T00:58:30;98215.56;;;7.72;100.00
11542;BME280;5827;49.482;7.716;2023-03-26T01:00:35;98216.72;;;7.64;100.00
11542;BME280;5827;49.482;7.716;2023-03-26T01:02:38;98209.88;;;7.68;100.00
11542;BME280;5827;49.482;7.716;2023-03-26T01:04:43;98208.97;;;7.62;100.00
11542;BME280;5827;49.482;7.716;2023-03-26T01:06:45;98209.53;;;7.64;100.00
11542;BME280;5827;49.482;7.716;2023-03-26T01:08:47;98207.84;;;7.58;100.00
11542;BME280;5827;49.482;7.716;2023-03-26T01:10:50;98200.66;;;7.59;100.00
11542;BME280;5827;49.482;7.716;2023-03-26T01:12:51;98192.66;;;7.59;100.00
11542;BME280;5827;49.482;7.716;2023-03-26T01:14:55;98196.22;;;7.64;100.00
11542;BME280;5827;49.482;7.716;2023-03-26T01:17:02;98189.25;;;7.63;100.00
11542;BME280;5827;49.482;7.716;2023-03-26T01:19:08;98190.78;;;7.59;100.00
11542;BME280;5827;49.482;7.716;2023-03-26T01:21:12;98180.56;;;7.68;100.00
11542;BME280;5827;49.482;7.716;2023-03-26T01:23:22;98179.56;;;7.57;100.00
11542;BME280;5827;49.482;7.716;2023-03-26T01:25:31;98174.69;;;7.54;100.00
11542;BME280;5827;49.482;7.716;2023-03-26T01:27:38;98182.78;;;7.59;100.00
11542;BME280;5827;49.482;7.716;2023-03-26T01:29:45;98178.59;;;7.63;100.00
11542;BME280;5827;49.482;7.716;2023-03-26T01:31:57;98171.56;;;7.57;100.00
11542;BME280;5827;49.482;7.716;2023-03-26T01:34:07;98164.63;;;7.56;100.00
11542;BME280;5827;49.482;7.716;2023-03-26T01:36:16;98163.50;;;7.41;100.00
11542;BME280;5827;49.482;7.716;2023-03-26T01:38:26;98152.09;;;7.57;100.00
11542;BME280;5827;49.482;7.716;2023-03-26T01:40:36;98160.22;;;7.50;100.00
11542;BME280;5827;49.482;7.716;2023-03-26T01:42:47;98159.19;;;7.51;100.00
11542;BME280;5827;49.482;7.716;2023-03-26T01:44:54;98156.41;;;7.46;100.00
11542;BME280;5827;49.482;7.716;2023-03-26T01:46:58;98148.84;;;7.55;100.00
11542;BME280;5827;49.482;7.716;2023-03-26T01:49:01;98147.91;;;7.61;100.00
11542;BME280;5827;49.482;7.716;2023-03-26T01:51:03;98143.38;;;7.61;100.00
11542;BME280;5827;49.482;7.716;2023-03-26T01:53:06;98138.38;;;7.65;100.00
11542;BME280;5827;49.482;7.716;2023-03-26T01:55:09;98138.06;;;7.61;100.00
11542;BME280;5827;49.482;7.716;2023-03-26T01:57:19;98124.47;;;7.63;100.00
11542;BME280;5827;49.482;7.716;2023-03-26T01:59:41;98119.47;;;7.67;100.00
11542;BME280;5827;49.482;7.716;2023-03-26T02:01:52;98112.53;;;7.66;100.00
11542;BME280;5827;49.482;7.716;2023-03-26T02:04:02;98110.09;;;7.64;100.00
11542;BME280;5827;49.482;7.716;2023-03-26T02:06:12;98106.88;;;7.62;100.00
11542;BME280;5827;49.482;7.716;2023-03-26T02:08:20;98101.59;;;7.50;100.00
11542;BME280;5827;49.482;7.716;2023-03-26T02:10:25;98093.84;;;7.49;100.00
11542;BME280;5827;49.482;7.716;2023-03-26T02:12:29;98097.41;;;7.54;100.00
11542;BME280;5827;49.482;7.716;2023-03-26T02:14:32;98089.25;;;7.61;100.00
11542;BME280;5827;49.482;7.716;2023-03-26T02:16:33;98089.56;;;7.64;100.00
11542;BME280;5827;49.482;7.716;2023-03-26T02:18:35;98084.31;;;7.53;100.00
11542;BME280;5827;49.482;7.716;2023-03-26T02:20:38;98074.00;;;7.56;100.00
11542;BME280;5827;49.482;7.716;2023-03-26T02:22:41;98076.66;;;7.56;100.00
11542;BME280;5827;49.482;7.716;2023-03-26T02:24:45;98074.00;;;7.56;100.00
11542;BME280;5827;49.482;7.716;2023-03-26T02:26:46;98068.31;;;7.53;100.00
11542;BME280;5827;49.482;7.716;2023-03-26T02:28:49;98062.91;;;7.48;100.00
11542;BME280;5827;49.482;7.716;2023-03-26T02:30:51;98066.13;;;7.50;100.00
11542;BME280;5827;49.482;7.716;2023-03-26T02:32:56;98058.38;;;7.48;100.00
11542;BME280;5827;49.482;7.716;2023-03-26T02:34:59;98057.00;;;7.46;100.00
11542;BME280;5827;49.482;7.716;2023-03-26T02:37:00;98057.00;;;7.46;100.00
11542;BME280;5827;49.482;7.716;2023-03-26T02:39:02;98047.88;;;7.42;100.00
11542;BME280;5827;49.482;7.716;2023-03-26T02:41:04;98048.38;;;7.38;100.00
11542;BME280;5827;49.482;7.716;2023-03-26T02:43:06;98049.16;;;7.39;100.00
11542;BME280;5827;49.482;7.716;2023-03-26T02:45:09;98051.13;;;7.44;100.00
11542;BME280;5827;49.482;7.716;2023-03-26T02:47:10;98044.41;;;7.41;100.00
11542;BME280;5827;49.482;7.716;2023-03-26T02:49:12;98037.88;;;7.49;100.00
11542;BME280;5827;49.482;7.716;2023-03-26T02:51:13;98042.56;;;7.58;100.00
11542;BME280;5827;49.482;7.716;2023-03-26T02:53:17;98039.72;;;7.48;100.00
11542;BME280;5827;49.482;7.716;2023-03-26T02:55:19;98031.94;;;7.47;100.00
11542;BME280;5827;49.482;7.716;2023-03-26T02:57:20;98028.47;;;7.46;100.00
11542;BME280;5827;49.482;7.716;2023-03-26T02:59:22;98025.81;;;7.46;100.00
11542;BME280;5827;49.482;7.716;2023-03-26T03:01:25;98026.63;;;7.47;100.00
11542;BME280;5827;49.482;7.716;2023-03-26T03:03:29;98019.69;;;7.46;100.00
11542;BME280;5827;49.482;7.716;2023-03-26T03:05:31;98010.81;;;7.40;100.00
11542;BME280;5827;49.482;7.716;2023-03-26T03:07:34;98020.75;;;7.45;100.00
11542;BME280;5827;49.482;7.716;2023-03-26T03:09:37;98021.28;;;7.47;100.00
11542;BME280;5827;49.482;7.716;2023-03-26T03:11:39;98016.06;;;7.52;100.00
11542;BME280;5827;49.482;7.716;2023-03-26T03:13:41;98007.56;;;7.55;100.00
11542;BME280;5827;49.482;7.716;2023-03-26T03:15:42;98004.91;;;7.55;100.00
11542;BME280;5827;49.482;7.716;2023-03-26T03:17:45;97995.47;;;7.47;100.00
11542;BME280;5827;49.482;7.716;2023-03-26T03:19:47;97995.88;;;7.39;100.00
11542;BME280;5827;49.482;7.716;2023-03-26T03:21:48;97975.00;;;7.02;100.00
11542;BME280;5827;49.482;7.716;2023-03-26T03:23:50;97985.44;;;7.37;100.00
11542;BME280;5827;49.482;7.716;2023-03-26T03:25:52;97981.50;;;7.40;100.00
11542;BME280;5827;49.482;7.716;2023-03-26T03:27:56;97972.84;;;7.50;100.00
11542;BME280;5827;49.482;7.716;2023-03-26T03:29:58;97968.72;;;7.59;100.00
11542;BME280;5827;49.482;7.716;2023-03-26T03:31:59;97968.47;;;7.60;100.00
11542;BME280;5827;49.482;7.716;2023-03-26T03:34:02;97962.91;;;7.62;100.00
11542;BME280;5827;49.482;7.716;2023-03-26T03:36:04;97966.94;;;7.64;100.00
11542;BME280;5827;49.482;7.716;2023-03-26T03:38:09;97964.03;;;7.66;100.00
11542;BME280;5827;49.482;7.716;2023-03-26T03:40:11;97957.81;;;7.60;100.00
11542;BME280;5827;49.482;7.716;2023-03-26T03:42:12;97946.59;;;7.58;100.00
11542;BME280;5827;49.482;7.716;2023-03-26T03:44:14;97950.31;;;7.57;100.00
11542;BME280;5827;49.482;7.716;2023-03-26T03:46:16;97944.00;;;7.63;100.00
11542;BME280;5827;49.482;7.716;2023-03-26T03:48:17;97941.00;;;7.77;100.00
11542;BME280;5827;49.482;7.716;2023-03-26T03:50:20;97943.53;;;7.67;100.00
11542;BME280;5827;49.482;7.716;2023-03-26T03:52:21;97937.13;;;7.68;100.00
11542;BME280;5827;49.482;7.716;2023-03-26T03:54:23;97923.72;;;7.62;100.00
11542;BME280;5827;49.482;7.716;2023-03-26T03:56:25;97916.84;;;7.67;100.00
11542;BME280;5827;49.482;7.716;2023-03-26T03:58:26;97914.50;;;7.70;100.00
11542;BME280;5827;49.482;7.716;2023-03-26T04:00:30;97912.41;;;7.72;100.00
11542;BME280;5827;49.482;7.716;2023-03-26T04:02:31;97900.84;;;7.67;100.00
11542;BME280;5827;49.482;7.716;2023-03-26T04:04:34;97895.94;;;7.58;100.00
11542;BME280;5827;49.482;7.716;2023-03-26T04:06:38;97889.13;;;7.68;100.00
11542;BME280;5827;49.482;7.716;2023-03-26T04:08:39;97890.75;;;7.69;100.00
11542;BME280;5827;49.482;7.716;2023-03-26T04:10:41;97878.63;;;7.39;100.00
11542;BME280;5827;49.482;7.716;2023-03-26T04:12:43;97870.91;;;7.59;100.00
11542;BME280;5827;49.482;7.716;2023-03-26T04:14:44;97872.88;;;7.69;100.00
11542;BME280;5827;49.482;7.716;2023-03-26T04:16:46;97874.81;;;7.74;100.00
11542;BME280;5827;49.482;7.716;2023-03-26T04:18:48;97865.03;;;7.79;100.00
11542;BME280;5827;49.482;7.716;2023-03-26T04:20:50;97853.13;;;7.87;100.00
11542;BME280;5827;49.482;7.716;2023-03-26T04:22:52;97857.41;;;7.88;100.00
11542;BME280;5827;49.482;7.716;2023-03-26T04:24:54;97855.50;;;7.83;100.00
11542;BME280;5827;49.482;7.716;2023-03-26T04:26:56;97846.66;;;7.83;100.00
11542;BME280;5827;49.482;7.716;2023-03-26T04:29:02;97837.25;;;7.75;100.00
11542;BME280;5827;49.482;7.716;2023-03-26T04:31:04;97841.84;;;7.80;100.00
11542;BME280;5827;49.482;7.716;2023-03-26T04:33:08;97836.75;;;7.78;100.00
11542;BME280;5827;49.482;7.716;2023-03-26T04:35:15;97834.72;;;7.85;100.00
11542;BME280;5827;49.482;7.716;2023-03-26T04:37:24;97830.66;;;7.83;100.00
11542;BME280;5827;49.482;7.716;2023-03-26T04:39:28;97833.03;;;7.79;100.00
11542;BME280;5827;49.482;7.716;2023-03-26T04:41:29;97832.03;;;7.85;100.00
11542;BME280;5827;49.482;7.716;2023-03-26T04:43:31;97827.44;;;7.81;100.00
11542;BME280;5827;49.482;7.716;2023-03-26T04:45:34;97832.47;;;7.77;100.00
11542;BME280;5827;49.482;7.716;2023-03-26T04:47:36;97835.94;;;7.78;100.00
11542;BME280;5827;49.482;7.716;2023-03-26T04:49:38;97831.19;;;7.80;100.00
11542;BME280;5827;49.482;7.716;2023-03-26T04:51:40;97826.16;;;7.83;100.00
11542;BME280;5827;49.482;7.716;2023-03-26T04:53:49;97819.81;;;7.89;100.00
11542;BME280;5827;49.482;7.716;2023-03-26T04:55:56;97822.97;;;7.86;100.00
11542;BME280;5827;49.482;7.716;2023-03-26T04:58:00;97819.03;;;7.89;100.00
11542;BME280;5827;49.482;7.716;2023-03-26T05:00:05;97815.34;;;7.95;100.00
11542;BME280;5827;49.482;7.716;2023-03-26T05:02:14;97810.66;;;7.80;100.00
11542;BME280;5827;49.482;7.716;2023-03-26T05:04:17;97808.78;;;7.81;100.00
11542;BME280;5827;49.482;7.716;2023-03-26T05:06:19;97808.31;;;7.84;100.00
11542;BME280;5827;49.482;7.716;2023-03-26T05:08:21;97804.47;;;7.75;100.00
11542;BME280;5827;49.482;7.716;2023-03-26T05:10:22;97798.28;;;7.74;100.00
11542;BME280;5827;49.482;7.716;2023-03-26T05:12:25;97788.41;;;7.48;100.00
11542;BME280;5827;49.482;7.716;2023-03-26T05:14:27;97774.75;;;7.44;100.00
11542;BME280;5827;49.482;7.716;2023-03-26T05:16:28;97780.38;;;7.70;100.00
11542;BME280;5827;49.482;7.716;2023-03-26T05:18:30;97777.28;;;7.78;100.00
11542;BME280;5827;49.482;7.716;2023-03-26T05:20:33;97767.56;;;7.67;100.00
11542;BME280;5827;49.482;7.716;2023-03-26T05:22:35;97759.69;;;7.77;100.00
11542;BME280;5827;49.482;7.716;2023-03-26T05:24:37;97769.41;;;7.88;100.00
11542;BME280;5827;49.482;7.716;2023-03-26T05:26:39;97767.50;;;7.83;100.00
11542;BME280;5827;49.482;7.716;2023-03-26T05:28:42;97762.50;;;7.92;100.00
11542;BME280;5827;49.482;7.716;2023-03-26T05:30:43;97754.31;;;7.99;100.00
11542;BME280;5827;49.482;7.716;2023-03-26T05:32:46;97751.59;;;7.94;100.00
11542;BME280;5827;49.482;7.716;2023-03-26T05:34:48;97753.75;;;7.97;100.00
11542;BME280;5827;49.482;7.716;2023-03-26T05:36:50;97752.44;;;7.99;100.00
11542;BME280;5827;49.482;7.716;2023-03-26T05:38:52;97742.03;;;7.98;100.00
11542;BME280;5827;49.482;7.716;2023-03-26T05:40:56;97736.75;;;8.03;100.00
11542;BME280;5827;49.482;7.716;2023-03-26T05:42:58;97734.63;;;8.05;100.00
11542;BME280;5827;49.482;7.716;2023-03-26T05:45:01;97737.81;;;8.02;100.00
11542;BME280;5827;49.482;7.716;2023-03-26T05:47:03;97735.94;;;8.02;100.00
11542;BME280;5827;49.482;7.716;2023-03-26T05:49:04;97729.09;;;8.11;100.00
11542;BME280;5827;49.482;7.716;2023-03-26T05:51:06;97719.78;;;8.14;100.00
11542;BME280;5827;49.482;7.716;2023-03-26T05:53:08;97711.41;;;8.05;100.00
11542;BME280;5827;49.482;7.716;2023-03-26T05:55:09;97702.66;;;8.10;100.00
11542;BME280;5827;49.482;7.716;2023-03-26T05:57:11;97693.81;;;8.04;100.00
11542;BME280;5827;49.482;7.716;2023-03-26T05:59:13;97686.13;;;8.08;100.00
11542;BME280;5827;49.482;7.716;2023-03-26T06:01:16;97690.19;;;8.15;100.00
11542;BME280;5827;49.482;7.716;2023-03-26T06:03:18;97685.63;;;8.11;100.00
11542;BME280;5827;49.482;7.716;2023-03-26T06:05:22;97675.59;;;7.96;100.00
11542;BME280;5827;49.482;7.716;2023-03-26T06:07:25;97669.75;;;7.99;100.00
11542;BME280;5827;49.482;7.716;2023-03-26T06:09:27;97666.63;;;8.07;100.00
11542;BME280;5827;49.482;7.716;2023-03-26T06:11:29;97664.28;;;8.11;100.00
11542;BME280;5827;49.482;7.716;2023-03-26T06:13:31;97669.13;;;8.19;100.00
11542;BME280;5827;49.482;7.716;2023-03-26T06:15:33;97665.66;;;8.19;100.00
11542;BME280;5827;49.482;7.716;2023-03-26T06:17:36;97670.25;;;8.28;100.00
11542;BME280;5827;49.482;7.716;2023-03-26T06:19:38;97667.84;;;8.27;100.00
11542;BME280;5827;49.482;7.716;2023-03-26T06:21:39;97665.78;;;8.34;100.00
11542;BME280;5827;49.482;7.716;2023-03-26T06:23:41;97662.75;;;8.20;100.00
11542;BME280;5827;49.482;7.716;2023-03-26T06:25:43;97662.56;;;8.32;100.00
11542;BME280;5827;49.482;7.716;2023-03-26T06:27:45;97663.41;;;8.37;100.00
11542;BME280;5827;49.482;7.716;2023-03-26T06:29:47;97664.94;;;8.33;100.00
11542;BME280;5827;49.482;7.716;2023-03-26T06:31:48;97666.28;;;8.31;100.00
11542;BME280;5827;49.482;7.716;2023-03-26T06:33:51;97657.47;;;8.30;100.00
11542;BME280;5827;49.482;7.716;2023-03-26T06:35:53;97659.63;;;8.33;100.00
11542;BME280;5827;49.482;7.716;2023-03-26T06:37:55;97649.22;;;8.32;100.00
11542;BME280;5827;49.482;7.716;2023-03-26T06:39:56;97655.97;;;8.39;100.00
11542;BME280;5827;49.482;7.716;2023-03-26T06:41:58;97659.34;;;8.30;100.00
11542;BME280;5827;49.482;7.716;2023-03-26T06:43:59;97647.41;;;8.05;100.00
11542;BME280;5827;49.482;7.716;2023-03-26T06:46:01;97641.91;;;8.17;100.00
11542;BME280;5827;49.482;7.716;2023-03-26T06:48:04;97642.75;;;8.23;100.00
11542;BME280;5827;49.482;7.716;2023-03-26T06:50:08;97639.81;;;8.24;100.00
11542;BME280;5827;49.482;7.716;2023-03-26T06:52:11;97630.13;;;8.13;100.00
11542;BME280;5827;49.482;7.716;2023-03-26T06:54:13;97634.28;;;8.36;100.00
11542;BME280;5827;49.482;7.716;2023-03-26T06:56:14;97628.06;;;8.20;100.00
11542;BME280;5827;49.482;7.716;2023-03-26T06:58:16;97624.25;;;8.43;100.00
11542;BME280;5827;49.482;7.716;2023-03-26T07:00:18;97625.38;;;8.20;100.00
11542;BME280;5827;49.482;7.716;2023-03-26T07:02:20;97609.88;;;8.17;100.00
11542;BME280;5827;49.482;7.716;2023-03-26T07:04:21;97610.25;;;8.31;100.00
11542;BME280;5827;49.482;7.716;2023-03-26T07:06:24;97610.91;;;8.43;100.00
11542;BME280;5827;49.482;7.716;2023-03-26T07:08:26;97609.09;;;8.54;100.00
11542;BME280;5827;49.482;7.716;2023-03-26T07:10:27;97613.66;;;8.58;100.00
11542;BME280;5827;49.482;7.716;2023-03-26T07:12:29;97616.88;;;8.65;100.00
11542;BME280;5827;49.482;7.716;2023-03-26T07:14:30;97610.50;;;8.72;100.00
11542;BME280;5827;49.482;7.716;2023-03-26T07:16:32;97608.13;;;8.75;100.00
11542;BME280;5827;49.482;7.716;2023-03-26T07:18:33;97606.78;;;8.73;100.00
11542;BME280;5827;49.482;7.716;2023-03-26T07:20:35;97600.38;;;8.79;100.00
11542;BME280;5827;49.482;7.716;2023-03-26T07:22:39;97601.72;;;8.76;100.00
11542;BME280;5827;49.482;7.716;2023-03-26T07:24:42;97604.13;;;8.78;100.00
11542;BME280;5827;49.482;7.716;2023-03-26T07:26:47;97595.88;;;8.84;100.00
11542;BME280;5827;49.482;7.716;2023-03-26T07:28:56;97593.59;;;8.56;100.00
11542;BME280;5827;49.482;7.716;2023-03-26T07:31:06;97587.16;;;8.52;100.00
11542;BME280;5827;49.482;7.716;2023-03-26T07:33:15;97580.53;;;8.59;100.00
11542;BME280;5827;49.482;7.716;2023-03-26T07:35:23;97575.94;;;8.50;100.00
11542;BME280;5827;49.482;7.716;2023-03-26T07:37:34;97563.97;;;8.52;100.00
11542;BME280;5827;49.482;7.716;2023-03-26T07:39:43;97545.78;;;8.07;100.00
11542;BME280;5827;49.482;7.716;2023-03-26T07:41:54;97537.53;;;8.08;100.00
11542;BME280;5827;49.482;7.716;2023-03-26T07:44:20;97534.19;;;7.91;100.00
11542;BME280;5827;49.482;7.716;2023-03-26T07:46:28;97526.56;;;8.05;100.00
11542;BME280;5827;49.482;7.716;2023-03-26T07:48:38;97519.53;;;8.36;100.00
11542;BME280;5827;49.482;7.716;2023-03-26T07:50:41;97512.66;;;8.40;100.00
11542;BME280;5827;49.482;7.716;2023-03-26T07:52:43;97506.38;;;8.24;100.00
11542;BME280;5827;49.482;7.716;2023-03-26T07:54:47;97500.63;;;8.43;100.00
11542;BME280;5827;49.482;7.716;2023-03-26T07:56:51;97507.66;;;8.59;100.00
11542;BME280;5827;49.482;7.716;2023-03-26T07:59:05;97496.16;;;8.53;100.00
11542;BME280;5827;49.482;7.716;2023-03-26T08:01:13;97494.28;;;8.49;100.00
11542;BME280;5827;49.482;7.716;2023-03-26T08:03:30;97482.38;;;8.24;100.00
11542;BME280;5827;49.482;7.716;2023-03-26T08:05:46;97480.38;;;8.47;100.00
11542;BME280;5827;49.482;7.716;2023-03-26T08:07:57;97493.25;;;8.70;100.00
11542;BME280;5827;49.482;7.716;2023-03-26T08:10:09;97492.78;;;8.83;100.00
11542;BME280;5827;49.482;7.716;2023-03-26T08:12:21;97483.97;;;8.83;100.00
11542;BME280;5827;49.482;7.716;2023-03-26T08:14:38;97484.00;;;8.98;100.00
11542;BME280;5827;49.482;7.716;2023-03-26T08:16:49;97477.81;;;8.82;100.00
11542;BME280;5827;49.482;7.716;2023-03-26T08:19:01;97473.63;;;9.12;100.00
11542;BME280;5827;49.482;7.716;2023-03-26T08:21:08;97479.75;;;9.33;100.00
11542;BME280;5827;49.482;7.716;2023-03-26T08:23:16;97482.19;;;9.39;100.00
11542;BME280;5827;49.482;7.716;2023-03-26T08:25:27;97476.00;;;9.24;100.00
11542;BME280;5827;49.482;7.716;2023-03-26T08:27:36;97476.56;;;9.51;100.00
11542;BME280;5827;49.482;7.716;2023-03-26T08:29:42;97477.88;;;9.69;100.00
11542;BME280;5827;49.482;7.716;2023-03-26T08:31:47;97469.06;;;9.48;100.00
11542;BME280;5827;49.482;7.716;2023-03-26T08:33:49;97480.03;;;9.72;100.00
11542;BME280;5827;49.482;7.716;2023-03-26T08:35:50;97481.09;;;9.81;100.00
11542;BME280;5827;49.482;7.716;2023-03-26T08:37:52;97479.22;;;9.66;100.00
11542;BME280;5827;49.482;7.716;2023-03-26T08:39:53;97478.69;;;9.70;100.00
11542;BME280;5827;49.482;7.716;2023-03-26T08:44:57;97484.03;;;9.64;100.00
11542;BME280;5827;49.482;7.716;2023-03-26T08:47:25;97482.41;;;9.74;100.00
11542;BME280;5827;49.482;7.716;2023-03-26T08:49:54;97474.69;;;9.72;100.00
11542;BME280;5827;49.482;7.716;2023-03-26T08:52:19;97468.53;;;9.61;100.00
11542;BME280;5827;49.482;7.716;2023-03-26T08:57:23;97469.28;;;9.87;100.00
11542;BME280;5827;49.482;7.716;2023-03-26T08:59:57;97472.75;;;9.93;100.00
11542;BME280;5827;49.482;7.716;2023-03-26T09:02:14;97473.78;;;10.12;100.00
11542;BME280;5827;49.482;7.716;2023-03-26T09:12:59;97466.38;;;10.69;100.00
11542;BME280;5827;49.482;7.716;2023-03-26T09:17:59;97475.81;;;11.06;100.00
11542;BME280;5827;49.482;7.716;2023-03-26T09:23:11;97464.34;;;10.95;100.00
11542;BME280;5827;49.482;7.716;2023-03-26T09:25:47;97460.00;;;11.04;100.00
11542;BME280;5827;49.482;7.716;2023-03-26T09:28:10;97456.50;;;11.09;100.00
11542;BME280;5827;49.482;7.716;2023-03-26T09:35:54;97452.91;;;11.82;100.00
11542;BME280;5827;49.482;7.716;2023-03-26T09:38:10;97446.22;;;12.08;100.00
11542;BME280;5827;49.482;7.716;2023-03-26T09:40:15;97446.53;;;12.31;100.00
11542;BME280;5827;49.482;7.716;2023-03-26T09:42:23;97450.28;;;12.30;100.00
11542;BME280;5827;49.482;7.716;2023-03-26T09:44:50;97445.00;;;12.01;100.00
11542;BME280;5827;49.482;7.716;2023-03-26T09:47:12;97441.69;;;11.80;100.00
11542;BME280;5827;49.482;7.716;2023-03-26T09:49:32;97454.59;;;12.07;100.00
11542;BME280;5827;49.482;7.716;2023-03-26T09:51:55;97438.41;;;12.36;100.00
11542;BME280;5827;49.482;7.716;2023-03-26T09:54:19;97444.16;;;12.00;100.00
11542;BME280;5827;49.482;7.716;2023-03-26T09:56:34;97435.97;;;12.15;100.00
11542;BME280;5827;49.482;7.716;2023-03-26T09:59:02;97442.47;;;12.09;100.00
11542;BME280;5827;49.482;7.716;2023-03-26T10:01:13;97439.72;;;12.38;98.82
11542;BME280;5827;49.482;7.716;2023-03-26T10:03:35;97451.50;;;12.42;97.10
11542;BME280;5827;49.482;7.716;2023-03-26T10:06:00;97448.84;;;12.13;97.19
11542;BME280;5827;49.482;7.716;2023-03-26T10:08:17;97457.72;;;12.38;96.27
11542;BME280;5827;49.482;7.716;2023-03-26T10:10:31;97455.47;;;12.45;98.65
11542;BME280;5827;49.482;7.716;2023-03-26T10:12:38;97462.13;;;12.53;96.87
11542;BME280;5827;49.482;7.716;2023-03-26T10:14:43;97472.16;;;12.18;93.11
11542;BME280;5827;49.482;7.716;2023-03-26T10:16:57;97471.22;;;12.33;94.46
11542;BME280;5827;49.482;7.716;2023-03-26T10:19:14;97467.56;;;12.48;92.98
11542;BME280;5827;49.482;7.716;2023-03-26T10:21:28;97479.22;;;12.38;91.66
11542;BME280;5827;49.482;7.716;2023-03-26T10:23:48;97478.06;;;12.20;91.15
11542;BME280;5827;49.482;7.716;2023-03-26T10:26:07;97475.22;;;12.11;92.01
11542;BME280;5827;49.482;7.716;2023-03-26T10:28:29;97465.16;;;12.22;91.87
11542;BME280;5827;49.482;7.716;2023-03-26T10:33:13;97475.72;;;12.13;87.61
11542;BME280;5827;49.482;7.716;2023-03-26T10:35:22;97469.09;;;12.06;87.73
11542;BME280;5827;49.482;7.716;2023-03-26T10:37:36;97468.69;;;12.17;88.14
11542;BME280;5827;49.482;7.716;2023-03-26T10:40:14;97485.16;;;12.35;85.30
11542;BME280;5827;49.482;7.716;2023-03-26T10:42:33;97479.44;;;12.84;85.08
11542;BME280;5827;49.482;7.716;2023-03-26T10:44:54;97474.00;;;12.46;83.07
11542;BME280;5827;49.482;7.716;2023-03-26T10:47:22;97473.03;;;12.61;85.74
11542;BME280;5827;49.482;7.716;2023-03-26T10:49:53;97471.38;;;12.41;87.78
11542;BME280;5827;49.482;7.716;2023-03-26T10:52:00;97490.03;;;11.75;91.98
11542;BME280;5827;49.482;7.716;2023-03-26T10:54:07;97475.03;;;11.00;97.38
11542;BME280;5827;49.482;7.716;2023-03-26T10:56:15;97468.50;;;10.67;99.70
11542;BME280;5827;49.482;7.716;2023-03-26T10:58:23;97477.75;;;10.95;100.00
11542;BME280;5827;49.482;7.716;2023-03-26T11:00:26;97465.47;;;10.84;99.86
11542;BME280;5827;49.482;7.716;2023-03-26T11:02:31;97478.16;;;11.12;100.00
11542;BME280;5827;49.482;7.716;2023-03-26T11:04:44;97480.97;;;11.31;100.00
11542;BME280;5827;49.482;7.716;2023-03-26T11:06:56;97472.78;;;11.52;100.00
11542;BME280;5827;49.482;7.716;2023-03-26T11:09:11;97478.63;;;11.59;99.24
11542;BME280;5827;49.482;7.716;2023-03-26T11:11:20;97482.06;;;11.64;97.62
11542;BME280;5827;49.482;7.716;2023-03-26T11:13:37;97484.38;;;11.76;97.67
11542;BME280;5827;49.482;7.716;2023-03-26T11:15:44;97486.44;;;11.55;93.30
11542;BME280;5827;49.482;7.716;2023-03-26T11:17:59;97474.13;;;12.12;93.80
11542;BME280;5827;49.482;7.716;2023-03-26T11:20:08;97495.72;;;12.26;92.75
11542;BME280;5827;49.482;7.716;2023-03-26T11:22:19;97487.84;;;12.11;89.15
11542;BME280;5827;49.482;7.716;2023-03-26T11:24:49;97495.97;;;12.30;88.31
11542;BME280;5827;49.482;7.716;2023-03-26T11:26:57;97490.28;;;12.55;86.54
11542;BME280;5827;49.482;7.716;2023-03-26T11:29:13;97497.72;;;12.39;85.70
11542;BME280;5827;49.482;7.716;2023-03-26T11:31:27;97505.34;;;12.56;83.00
11542;BME280;5827;49.482;7.716;2023-03-26T11:33:35;97512.47;;;12.42;82.32
11542;BME280;5827;49.482;7.716;2023-03-26T11:35:41;97501.44;;;12.43;82.68
11542;BME280;5827;49.482;7.716;2023-03-26T11:37:49;97495.66;;;12.55;80.99
11542;BME280;5827;49.482;7.716;2023-03-26T11:39:55;97506.00;;;12.67;81.14
11542;BME280;5827;49.482;7.716;2023-03-26T11:42:03;97503.09;;;12.82;81.14
11542;BME280;5827;49.482;7.716;2023-03-26T11:44:14;97504.91;;;12.68;80.02
11542;BME280;5827;49.482;7.716;2023-03-26T11:46:21;97509.84;;;13.22;77.60